MMMY

General Mariano Escobedo International Airport

Monterrey, Mexico
TAF AMD MMMY 230738Z 2308/2412 12008KT P6SM BKN012 OVC020 TX29/2322Z TN19/2312Z TEMPO 2312/2316 4SM -RA BR OVC010 FM231800 12010KT 6SM HZ BKN025 OVC080 PROB40 2322/2402 5SM -RA FM240700 16008KT P6SM SCT020 BKN080
Issued Valid From Valid To
Apr-23 @ 07:38 UTC
(2 hours ago)
Apr-23 @ 08:00 UTC
(2 hours ago)
Apr-24 @ 12:00 UTC
(-1 days ago)
Apr-23 @ 08:00 to Apr-23 @ 18:00
TAF AMD MMMY 230738Z 2308/2412 12008KT P6SM BKN012 OVC020 TX29/2322Z TN19/2312Z
Wind Visibility Clouds
120° at 8 knots Greater than 6 miles
  • Broken at 1,200' AGL
  • Overcast at 2,000' AGL
Temporary Apr-23 @ 12:00 to Apr-23 @ 16:00
TEMPO 2312/2316 4SM -RA BR OVC010
Visibility Clouds Conditions
4 miles
  • Overcast at 1,000' AGL
  • Light Rain
  • Mist
From Apr-23 @ 18:00 to Apr-24 @ 07:00
FM231800 12010KT 6SM HZ BKN025 OVC080
Wind Visibility Clouds Conditions
120° at 10 knots 6 miles
  • Broken at 2,500' AGL
  • Overcast at 8,000' AGL
  • Haze
Probable  (Probability 40%) Apr-23 @ 22:00 to Apr-24 @ 02:00
PROB40 2322/2402 5SM -RA
Visibility Conditions
5 miles
  • Light Rain
From Apr-24 @ 07:00 to Apr-24 @ 12:00
FM240700 16008KT P6SM SCT020 BKN080
Wind Visibility Clouds
160° at 8 knots Greater than 6 miles
  • Scattered at 2,000' AGL
  • Broken at 8,000' AGL
TAF AMD MMMY 230738Z 2308/2412 12008KT P6SM BKN012 OVC020 TX29/2322Z TN19/2312Z TEMPO 2312/2316 4SM -RA BR OVC010 FM231800 12010KT 6SM HZ BKN025 OVC080 PROB40 2322/2402 5SM -RA FM240700 16008KT P6SM SCT020 BKN080
Issued Apr-23 @ 07:38 UTC
(2 hours ago)
Valid From Apr-23 @ 08:00 UTC
(2 hours ago)
Valid To Apr-24 @ 12:00 UTC
(-1 days ago)
Apr-23 @ 08:00 - Apr-23 @ 18:00
Wind Visibility
120° at 8 knots Greater than 6 miles
Clouds
  • Broken at 1,200' AGL
  • Overcast at 2,000' AGL
Temporary Apr-23 @ 12:00 - Apr-23 @ 16:00
Clouds
  • Overcast at 1,000' AGL
Conditions
  • Light Rain
  • Mist
From Apr-23 @ 18:00 - Apr-24 @ 07:00
Wind Visibility
120° at 10 knots 6 miles
Clouds
  • Broken at 2,500' AGL
  • Overcast at 8,000' AGL
Conditions
  • Haze
Probability 40% Probable Apr-23 @ 22:00 - Apr-24 @ 02:00
Conditions
  • Light Rain
From Apr-24 @ 07:00 - Apr-24 @ 12:00
Wind Visibility
160° at 8 knots Greater than 6 miles
Clouds
  • Scattered at 2,000' AGL
  • Broken at 8,000' AGL